Time;durP1;ratioP1;P1;durP2;ratioP2;P2;SDS_P1;SDS_P2;PMS_P1;PMS_P2;Temp;Humidity;BMP_temperature;BMP_pressure;BME280_temperature;BME280_humidity;BME280_pressure;Samples;Min_cycle;Max_cycle;Signal;HPM_P1;HPM_P2
2021/10/17 00:00:26;;;;;;;55.92;41.88;;;281.70;2278.40;;;;;;5093681;28;20450;-79
2021/10/17 00:02:52;;;;;;;51.55;38.30;;;281.70;2278.40;;;;;;5095073;28;20115;-78
2021/10/17 00:05:22;;;;;;;53.80;38.47;;;281.90;2278.40;;;;;;5093924;28;20460;-78
2021/10/17 00:07:48;;;;;;;54.42;40.13;;;281.70;2278.40;;;;;;5093765;28;20025;-77
2021/10/17 00:10:22;;;;;;;51.75;39.00;;;281.70;2278.40;;;;;;5094819;28;20034;-77
2021/10/17 00:12:48;;;;;;;57.97;42.17;;;281.80;2278.40;;;;;;5093985;28;20024;-79
2021/10/17 00:15:18;;;;;;;66.85;48.53;;;256.70;2252.80;;;;;;5095195;28;20357;-77
2021/10/17 00:17:45;;;;;;;67.50;45.40;;;281.70;2278.40;;;;;;5093859;28;20052;-78
2021/10/17 00:20:13;;;;;;;67.85;47.33;;;281.70;2278.40;;;;;;5095058;28;20089;-77
2021/10/17 00:22:39;;;;;;;76.50;51.65;;;281.80;2278.40;;;;;;5093621;28;20028;-76
2021/10/17 00:25:07;;;;;;;66.15;46.42;;;281.80;2278.40;;;;;;5093332;28;20024;-77
2021/10/17 00:27:33;;;;;;;63.88;48.67;;;281.80;2278.40;;;;;;5093513;28;20024;-78
2021/10/17 00:29:59;;;;;;;59.63;44.10;;;281.80;2278.40;;;;;;5093736;28;20399;-79
2021/10/17 00:32:25;;;;;;;68.28;50.60;;;281.90;2278.40;;;;;;5093293;28;20377;-79
2021/10/17 00:34:51;;;;;;;75.70;55.25;;;281.80;2278.40;;;;;;5094622;28;20488;-78
2021/10/17 00:37:18;;;;;;;74.15;55.08;;;281.70;2278.40;;;;;;5093399;28;20074;-78
2021/10/17 00:39:45;;;;;;;72.82;53.78;;;281.70;2278.40;;;;;;5092942;28;20024;-80
2021/10/17 00:42:11;;;;;;;69.25;50.92;;;281.70;2278.40;;;;;;5093349;28;20024;-78
2021/10/17 00:44:38;;;;;;;67.80;51.92;;;281.60;2278.40;;;;;;5093359;28;20024;-78
2021/10/17 00:47:05;;;;;;;59.97;45.50;;;281.70;2278.40;;;;;;5092856;28;20024;-77
2021/10/17 00:49:31;;;;;;;76.13;55.38;;;281.70;2278.40;;;;;;5093101;28;20085;-80
2021/10/17 00:51:57;;;;;;;76.82;56.40;;;281.60;2278.40;;;;;;5092877;28;20028;-76
2021/10/17 00:54:23;;;;;;;65.22;48.22;;;281.60;2278.40;;;;;;5093066;28;20034;-76
2021/10/17 00:56:49;;;;;;;67.93;48.72;;;281.70;2278.40;;;;;;5093176;28;20020;-76
2021/10/17 00:59:15;;;;;;;67.70;50.53;;;281.70;2278.40;;;;;;5092591;28;20452;-76
2021/10/17 01:01:41;;;;;;;61.78;48.47;;;281.70;2278.40;;;;;;5092948;28;20031;-77
2021/10/17 01:04:08;;;;;;;60.03;45.92;;;281.70;2278.40;;;;;;5092827;28;20118;-76
2021/10/17 01:06:33;;;;;;;57.90;45.17;;;281.70;2278.40;;;;;;5092668;28;20375;-76
2021/10/17 01:08:59;;;;;;;53.40;41.67;;;281.70;2278.40;;;;;;5093858;28;20080;-77
2021/10/17 01:11:42;;;;;;;59.67;46.55;;;281.70;2278.40;;;;;;5092818;28;20020;-76
2021/10/17 01:14:09;;;;;;;60.15;45.67;;;281.70;2278.40;;;;;;5092837;28;20024;-76
2021/10/17 01:16:38;;;;;;;54.08;41.78;;;281.70;2278.40;;;;;;5094272;28;20438;-77
2021/10/17 01:19:04;;;;;;;61.75;45.50;;;281.80;2278.40;;;;;;5092691;28;20464;-77
2021/10/17 01:21:29;;;;;;;56.63;45.58;;;281.90;2278.40;;;;;;5093473;28;20027;-76
2021/10/17 01:23:55;;;;;;;57.63;44.28;;;281.70;2278.40;;;;;;5092635;28;20026;-75
2021/10/17 01:26:21;;;;;;;54.28;41.72;;;281.70;2278.40;;;;;;5093662;28;20383;-78
2021/10/17 01:28:50;;;;;;;74.43;52.58;;;281.70;2278.40;;;;;;5092415;28;20032;-79
2021/10/17 01:31:16;;;;;;;64.50;48.42;;;281.60;2278.40;;;;;;5092659;28;20041;-77
2021/10/17 01:33:42;;;;;;;65.90;48.70;;;281.60;2278.40;;;;;;5092327;28;20035;-78
2021/10/17 01:36:08;;;;;;;68.85;50.53;;;281.60;2278.40;;;;;;5092467;28;20024;-77
2021/10/17 01:38:33;;;;;;;73.22;52.50;;;281.70;2278.40;;;;;;5092571;28;20368;-76
2021/10/17 01:40:59;;;;;;;69.38;50.05;;;281.60;2278.40;;;;;;5092336;28;20036;-81
2021/10/17 01:43:27;;;;;;;71.47;52.80;;;256.90;2252.80;;;;;;5092513;28;20444;-77
2021/10/17 01:45:53;;;;;;;69.97;52.50;;;256.90;2252.80;;;;;;5092557;28;20156;-78
2021/10/17 01:48:19;;;;;;;76.18;53.58;;;256.70;2252.80;;;;;;5092215;28;20451;-78
2021/10/17 01:50:45;;;;;;;77.90;55.88;;;256.80;2252.80;;;;;;5092416;28;20539;-77
2021/10/17 01:53:11;;;;;;;78.85;55.05;;;256.60;2252.80;;;;;;5092620;28;20020;-78
2021/10/17 01:55:37;;;;;;;74.05;53.53;;;256.60;2252.80;;;;;;5092154;28;20097;-78
2021/10/17 01:58:02;;;;;;;66.85;47.60;;;256.70;2252.80;;;;;;5092302;28;20027;-76
2021/10/17 02:00:28;;;;;;;62.15;46.80;;;256.70;2252.80;;;;;;5092305;28;20028;-77
2021/10/17 02:02:54;;;;;;;67.55;48.05;;;256.70;2252.80;;;;;;5092075;28;20495;-76
2021/10/17 02:05:20;;;;;;;67.13;48.50;;;256.70;2252.80;;;;;;5092324;28;20031;-78
2021/10/17 02:07:46;;;;;;;64.05;45.60;;;256.70;2252.80;;;;;;5092228;28;20024;-76
2021/10/17 02:10:11;;;;;;;70.63;47.05;;;256.60;2252.80;;;;;;5092043;28;20059;-78
2021/10/17 02:12:37;;;;;;;60.78;43.20;;;256.50;2252.80;;;;;;5094427;28;20028;-76
2021/10/17 02:15:05;;;;;;;64.03;43.55;;;256.60;2252.80;;;;;;5096120;28;20031;-78
2021/10/17 02:17:31;;;;;;;56.38;39.45;;;256.60;2252.80;;;;;;5095807;28;20020;-78
2021/10/17 02:19:59;;;;;;;65.85;46.40;;;256.80;2252.80;;;;;;5095941;28;20034;-76
2021/10/17 02:22:25;;;;;;;62.63;42.92;;;256.80;2252.80;;;;;;5095949;28;20032;-78
2021/10/17 02:24:51;;;;;;;49.88;37.00;;;256.80;2252.80;;;;;;5096993;28;20032;-76
2021/10/17 02:27:16;;;;;;;47.33;37.40;;;256.90;2252.80;;;;;;5095871;28;20433;-76
2021/10/17 02:29:42;;;;;;;52.83;38.28;;;281.60;2278.40;;;;;;5095876;28;20032;-78
2021/10/17 02:32:08;;;;;;;58.67;39.83;;;281.70;2278.40;;;;;;5095698;28;20059;-77
2021/10/17 02:34:34;;;;;;;54.45;40.92;;;281.70;2278.40;;;;;;5095621;28;20046;-76
2021/10/17 02:37:00;;;;;;;53.95;39.60;;;281.70;2278.40;;;;;;5095658;28;20024;-77
2021/10/17 02:39:25;;;;;;;57.97;41.70;;;281.70;2278.40;;;;;;5095626;28;20031;-78
2021/10/17 02:41:51;;;;;;;54.35;40.30;;;281.70;2278.40;;;;;;5095588;28;20039;-78
2021/10/17 02:44:17;;;;;;;59.67;45.60;;;281.80;2278.40;;;;;;5095386;28;20032;-76
2021/10/17 02:46:43;;;;;;;56.83;42.33;;;281.80;2278.40;;;;;;5095602;28;20137;-77
2021/10/17 02:49:09;;;;;;;54.75;41.63;;;281.80;2278.40;;;;;;5095449;28;20181;-77
2021/10/17 02:51:35;;;;;;;55.63;43.17;;;281.70;2278.40;;;;;;5096605;28;20028;-79
2021/10/17 02:54:00;;;;;;;58.00;42.03;;;281.80;2278.40;;;;;;5095505;28;20020;-80
2021/10/17 02:56:26;;;;;;;61.67;44.47;;;281.80;2278.40;;;;;;5096385;28;20039;-77
2021/10/17 02:58:52;;;;;;;62.90;48.20;;;281.80;2278.40;;;;;;5095085;28;20024;-78
2021/10/17 03:01:18;;;;;;;65.45;48.50;;;281.70;2278.40;;;;;;5095347;28;20123;-77
2021/10/17 03:03:44;;;;;;;64.90;47.75;;;281.70;2278.40;;;;;;5095238;28;20020;-80
2021/10/17 03:06:10;;;;;;;65.20;49.25;;;281.60;2278.40;;;;;;5096148;28;20030;-79
2021/10/17 03:08:35;;;;;;;62.55;45.70;;;256.90;2252.80;;;;;;5095052;28;20031;-79
2021/10/17 03:11:01;;;;;;;64.45;46.90;;;256.90;2252.80;;;;;;5095109;28;20028;-77
2021/10/17 03:13:27;;;;;;;61.47;44.17;;;256.90;2252.80;;;;;;5094763;28;20032;-76
2021/10/17 03:15:56;;;;;;;69.25;46.83;;;256.90;2252.80;;;;;;5095100;28;20046;-78
2021/10/17 03:18:22;;;;;;;57.45;41.25;;;281.60;2278.40;;;;;;5095053;28;20047;-76
2021/10/17 03:20:47;;;;;;;56.55;41.15;;;281.60;2278.40;;;;;;5094538;28;20472;-77
2021/10/17 03:23:13;;;;;;;69.30;45.60;;;256.90;2252.80;;;;;;5094593;28;20066;-78
2021/10/17 03:25:39;;;;;;;64.82;45.30;;;256.90;2252.80;;;;;;5094762;28;20028;-78
2021/10/17 03:28:05;;;;;;;60.60;44.83;;;256.80;2252.80;;;;;;5094501;28;20024;-78
2021/10/17 03:30:30;;;;;;;67.35;45.65;;;256.80;2252.80;;;;;;5096308;28;20036;-78
2021/10/17 03:32:56;;;;;;;60.28;42.92;;;256.70;2252.80;;;;;;5094528;28;20060;-78
2021/10/17 03:35:22;;;;;;;66.32;47.38;;;256.90;2252.80;;;;;;5094525;28;20165;-78
2021/10/17 03:37:48;;;;;;;56.10;42.10;;;256.90;2252.80;;;;;;5094503;28;20452;-76
2021/10/17 03:40:14;;;;;;;66.70;46.60;;;256.90;2252.80;;;;;;5094174;28;20032;-78
2021/10/17 03:42:40;;;;;;;60.85;44.97;;;256.90;2252.80;;;;;;5094407;28;20029;-77
2021/10/17 03:45:06;;;;;;;63.00;42.83;;;256.90;2252.80;;;;;;5095654;28;20035;-77
2021/10/17 03:47:32;;;;;;;66.75;45.17;;;256.90;2252.80;;;;;;5094049;28;20375;-77
2021/10/17 03:49:57;;;;;;;67.13;43.78;;;256.90;2252.80;;;;;;5094371;28;20038;-76
2021/10/17 03:52:23;;;;;;;59.92;44.00;;;256.90;2252.80;;;;;;5095666;28;20028;-77
2021/10/17 03:54:49;;;;;;;73.28;50.53;;;256.90;2252.80;;;;;;5095090;28;20032;-77
2021/10/17 03:57:15;;;;;;;76.95;53.53;;;256.90;2252.80;;;;;;5095451;28;20060;-77
2021/10/17 03:59:40;;;;;;;70.72;47.58;;;256.90;2252.80;;;;;;5094936;28;20028;-79
2021/10/17 04:02:06;;;;;;;69.38;48.28;;;281.60;2278.40;;;;;;5093946;28;20031;-79
2021/10/17 04:04:32;;;;;;;65.95;46.92;;;281.70;2278.40;;;;;;5094069;28;20380;-78
2021/10/17 04:06:58;;;;;;;69.38;47.88;;;256.90;2252.80;;;;;;5093922;28;20031;-80
2021/10/17 04:09:24;;;;;;;66.70;44.67;;;256.90;2252.80;;;;;;5093728;28;20032;-79
2021/10/17 04:11:51;;;;;;;64.78;43.78;;;256.90;2252.80;;;;;;5094875;28;20031;-78
2021/10/17 04:14:17;;;;;;;72.38;49.55;;;256.90;2252.80;;;;;;5093705;28;20039;-78
2021/10/17 04:16:43;;;;;;;77.88;51.95;;;256.90;2252.80;;;;;;5094780;28;20020;-78
2021/10/17 04:19:09;;;;;;;76.53;50.38;;;281.60;2278.40;;;;;;5093689;28;20028;-77
2021/10/17 04:21:35;;;;;;;71.95;48.17;;;281.60;2278.40;;;;;;5093796;28;20091;-79
2021/10/17 04:24:00;;;;;;;80.97;54.15;;;281.60;2278.40;;;;;;5093455;28;20073;-78
2021/10/17 04:26:26;;;;;;;74.28;49.15;;;281.60;2278.40;;;;;;5093536;28;20111;-80
2021/10/17 04:28:52;;;;;;;69.55;46.45;;;281.60;2278.40;;;;;;5093313;28;20020;-77
2021/10/17 04:31:18;;;;;;;64.18;47.90;;;281.70;2278.40;;;;;;5093614;28;20533;-79
2021/10/17 04:33:43;;;;;;;72.05;52.72;;;281.70;2278.40;;;;;;5093263;28;20031;-79
2021/10/17 04:36:10;;;;;;;69.88;50.53;;;256.90;2252.80;;;;;;5092846;28;20024;-77
2021/10/17 04:38:37;;;;;;;61.17;45.35;;;256.80;2252.80;;;;;;5094802;28;20158;-76
2021/10/17 04:41:03;;;;;;;63.40;45.53;;;256.90;2252.80;;;;;;5094662;28;20088;-78
2021/10/17 04:43:30;;;;;;;72.30;51.53;;;281.60;2278.40;;;;;;5093389;28;20028;-76
2021/10/17 04:45:56;;;;;;;71.95;48.60;;;281.60;2278.40;;;;;;5093367;28;20420;-76
2021/10/17 04:48:22;;;;;;;78.25;53.38;;;256.90;2252.80;;;;;;5093375;28;20020;-79
2021/10/17 04:50:49;;;;;;;67.60;48.60;;;256.90;2252.80;;;;;;5093127;28;20047;-76
2021/10/17 04:53:15;;;;;;;70.30;51.30;;;256.80;2252.80;;;;;;5093112;28;20024;-77
2021/10/17 04:55:40;;;;;;;74.68;54.40;;;256.80;2252.80;;;;;;5093207;28;20024;-79
2021/10/17 04:58:06;;;;;;;76.88;52.47;;;256.70;2252.80;;;;;;5094125;28;20056;-77
2021/10/17 05:00:32;;;;;;;68.95;47.47;;;256.50;2252.80;;;;;;5094256;28;20020;-77
2021/10/17 05:02:58;;;;;;;68.43;50.03;;;256.60;2252.80;;;;;;5097152;28;20032;-76
2021/10/17 05:05:24;;;;;;;77.97;53.58;;;256.70;2252.80;;;;;;5099754;28;20456;-75
2021/10/17 05:07:50;;;;;;;69.95;51.33;;;256.80;2252.80;;;;;;5100392;28;20059;-76
2021/10/17 05:10:15;;;;;;;75.60;56.90;;;256.70;2252.80;;;;;;5099835;28;20440;-76
2021/10/17 05:12:41;;;;;;;67.43;49.83;;;256.60;2252.80;;;;;;5099632;28;20031;-77
2021/10/17 05:15:07;;;;;;;65.57;48.28;;;256.70;2252.80;;;;;;5099824;28;20032;-76
2021/10/17 05:17:33;;;;;;;76.35;55.97;;;256.70;2252.80;;;;;;5100107;28;20028;-75
2021/10/17 05:19:59;;;;;;;65.75;49.75;;;256.90;2252.80;;;;;;5099656;28;20034;-76
2021/10/17 05:22:25;;;;;;;71.03;53.78;;;256.80;2252.80;;;;;;5098991;28;20032;-75
2021/10/17 05:24:51;;;;;;;76.43;54.33;;;256.90;2252.80;;;;;;5099164;28;20024;-76
2021/10/17 05:27:17;;;;;;;76.53;55.38;;;281.60;2278.40;;;;;;5098464;28;20032;-78
2021/10/17 05:29:42;;;;;;;79.68;55.63;;;281.70;2278.40;;;;;;5095758;28;20357;-78
2021/10/17 05:32:08;;;;;;;70.18;50.72;;;281.60;2278.40;;;;;;5092625;28;20455;-77
2021/10/17 05:34:34;;;;;;;66.60;48.50;;;281.60;2278.40;;;;;;5092111;28;20131;-77
2021/10/17 05:37:00;;;;;;;80.90;56.22;;;281.60;2278.40;;;;;;5092919;28;20030;-79
2021/10/17 05:39:26;;;;;;;81.40;56.55;;;281.70;2278.40;;;;;;5092728;28;20032;-76
2021/10/17 05:41:52;;;;;;;81.57;57.28;;;281.70;2278.40;;;;;;5092673;28;20387;-77
2021/10/17 05:44:17;;;;;;;90.05;63.28;;;281.80;2278.40;;;;;;5093971;28;20078;-76
2021/10/17 05:46:43;;;;;;;130.45;91.82;;;281.80;2278.40;;;;;;5093805;28;20070;-76
2021/10/17 05:49:09;;;;;;;158.73;110.38;;;281.80;2278.40;;;;;;5097778;28;20051;-78
2021/10/17 05:51:35;;;;;;;142.50;101.60;;;281.70;2278.40;;;;;;5096980;28;20034;-78
2021/10/17 05:54:00;;;;;;;149.68;98.50;;;281.70;2278.40;;;;;;5098554;28;20464;-78
2021/10/17 05:56:26;;;;;;;160.20;105.97;;;281.70;2278.40;;;;;;5096839;28;20021;-77
2021/10/17 05:58:52;;;;;;;140.77;98.82;;;281.80;2278.40;;;;;;5096404;28;20031;-79
2021/10/17 06:01:18;;;;;;;147.88;102.32;;;281.90;2278.40;;;;;;5096280;28;20028;-78
2021/10/17 06:03:44;;;;;;;149.15;105.40;;;281.80;2278.40;;;;;;5096577;28;20031;-77
2021/10/17 06:06:11;;;;;;;135.35;97.82;;;281.80;2278.40;;;;;;5096111;28;20048;-79
2021/10/17 06:08:39;;;;;;;138.45;99.38;;;281.80;2278.40;;;;;;5095994;28;20055;-76
2021/10/17 06:11:05;;;;;;;136.93;100.05;;;281.90;2278.40;;;;;;5097235;28;20031;-79
2021/10/17 06:13:31;;;;;;;185.63;126.30;;;281.90;2278.40;;;;;;5096242;28;20027;-79
2021/10/17 06:15:57;;;;;;;154.65;110.53;;;281.90;2278.40;;;;;;5095978;28;20027;-78
2021/10/17 06:18:23;;;;;;;138.00;101.95;;;281.80;2278.40;;;;;;5096185;28;20020;-76
2021/10/17 06:20:49;;;;;;;161.63;121.18;;;281.70;2278.40;;;;;;5095823;28;20073;-76
2021/10/17 06:23:15;;;;;;;148.80;113.53;;;281.70;2278.40;;;;;;5096200;28;20375;-77
2021/10/17 06:25:41;;;;;;;165.60;127.28;;;281.60;2278.40;;;;;;5096927;28;20024;-76
2021/10/17 06:28:07;;;;;;;140.23;101.30;;;256.90;2252.80;;;;;;5095754;28;20036;-77
2021/10/17 06:30:33;;;;;;;160.57;120.57;;;256.80;2252.80;;;;;;5095982;28;20475;-76
2021/10/17 06:32:58;;;;;;;144.18;104.65;;;256.80;2252.80;;;;;;5095872;28;20458;-77
2021/10/17 06:35:24;;;;;;;282.98;209.77;;;256.90;2252.80;;;;;;5095306;28;20072;-78
2021/10/17 06:37:50;;;;;;;157.50;112.82;;;256.90;2252.80;;;;;;5095927;28;20375;-76
2021/10/17 06:40:16;;;;;;;157.32;110.63;;;256.90;2252.80;;;;;;5095840;28;20078;-79
2021/10/17 06:42:42;;;;;;;228.13;182.30;;;256.80;2252.80;;;;;;5095405;28;20063;-77
2021/10/17 06:45:08;;;;;;;156.10;118.65;;;256.80;2252.80;;;;;;5095409;28;20127;-77
2021/10/17 06:47:34;;;;;;;136.07;100.97;;;256.80;2252.80;;;;;;5095615;28;20052;-78
2021/10/17 06:49:59;;;;;;;125.85;90.32;;;256.80;2252.80;;;;;;5095250;28;20067;-79
2021/10/17 06:52:25;;;;;;;114.63;81.60;;;281.60;2278.40;;;;;;5095439;28;20024;-77
2021/10/17 06:54:51;;;;;;;148.65;99.28;;;281.80;2278.40;;;;;;5095546;28;20063;-76
2021/10/17 06:57:17;;;;;;;138.02;98.82;;;281.80;2278.40;;;;;;5094604;28;20063;-79
2021/10/17 06:59:43;;;;;;;132.68;93.88;;;281.80;2278.40;;;;;;5095298;28;20118;-75
2021/10/17 07:02:08;;;;;;;131.88;92.25;;;281.90;2278.40;;;;;;5096310;28;20028;-77
2021/10/17 07:04:34;;;;;;;108.25;80.28;;;281.90;2278.40;;;;;;5094966;28;20069;-77
2021/10/17 07:07:00;;;;;;;93.22;65.70;;;281.90;2278.40;;;;;;5096606;28;20074;-76
2021/10/17 07:09:26;;;;;;;91.60;66.32;;;281.90;2278.40;;;;;;5095276;28;20028;-77
2021/10/17 07:11:52;;;;;;;93.78;70.25;;;281.90;2278.40;;;;;;5096256;28;20448;-76
2021/10/17 07:14:18;;;;;;;80.43;60.20;;;282.00;2278.40;;;;;;5096640;28;20475;-79
2021/10/17 07:16:44;;;;;;;70.78;51.15;;;281.90;2278.40;;;;;;5095105;28;20028;-78
2021/10/17 07:19:10;;;;;;;73.78;54.22;;;281.70;2278.40;;;;;;5096081;28;20034;-78
2021/10/17 07:21:35;;;;;;;80.88;59.72;;;281.90;2278.40;;;;;;5094629;28;20031;-77
2021/10/17 07:24:01;;;;;;;79.25;64.70;;;281.90;2278.40;;;;;;5094831;28;20093;-79
2021/10/17 07:26:27;;;;;;;59.83;48.08;;;281.80;2278.40;;;;;;5094775;28;20124;-79
2021/10/17 07:28:53;;;;;;;56.50;44.58;;;281.70;2278.40;;;;;;5095079;28;20514;-78
2021/10/17 07:31:19;;;;;;;64.65;46.85;;;281.80;2278.40;;;;;;5095551;28;20027;-78
2021/10/17 07:33:45;;;;;;;50.25;40.13;;;281.80;2278.40;;;;;;5094500;28;20071;-78
2021/10/17 07:36:11;;;;;;;52.50;41.55;;;281.80;2278.40;;;;;;5094896;28;20059;-78
2021/10/17 07:38:36;;;;;;;54.92;43.53;;;282.00;2278.40;;;;;;5095998;28;20025;-78
2021/10/17 07:41:02;;;;;;;56.05;44.05;;;282.20;2278.40;;;;;;5094513;28;20050;-76
2021/10/17 07:43:28;;;;;;;61.20;43.55;;;282.10;2278.40;;;;;;5094468;28;20464;-76
2021/10/17 07:45:54;;;;;;;58.03;43.67;;;282.10;2278.40;;;;;;5095553;28;20103;-75
2021/10/17 07:48:20;;;;;;;63.50;48.20;;;282.10;2278.40;;;;;;5094612;28;20080;-78
2021/10/17 07:50:46;;;;;;;58.75;45.88;;;282.10;2278.40;;;;;;5095733;28;20372;-79
2021/10/17 07:53:12;;;;;;;60.45;47.63;;;282.20;2278.40;;;;;;5095311;28;20420;-76
2021/10/17 07:55:38;;;;;;;61.15;45.28;;;282.30;2278.40;;;;;;5094087;28;20038;-78
2021/10/17 07:58:03;;;;;;;58.13;44.08;;;282.30;2278.40;;;;;;5094012;28;20472;-77
2021/10/17 08:00:30;;;;;;;72.90;50.90;;;282.30;2278.40;;;;;;5093735;28;20032;-74
2021/10/17 08:02:57;;;;;;;75.53;58.22;;;282.40;2278.40;;;;;;5095068;28;20031;-75
2021/10/17 08:05:23;;;;;;;68.03;49.92;;;282.30;2278.40;;;;;;5093922;28;20379;-74
2021/10/17 08:07:49;;;;;;;60.47;46.05;;;282.50;2278.40;;;;;;5093631;28;20028;-76
2021/10/17 08:10:15;;;;;;;60.65;47.67;;;282.50;2278.40;;;;;;5094206;28;20028;-78
2021/10/17 08:12:41;;;;;;;56.25;43.88;;;282.50;2278.40;;;;;;5093812;28;20020;-74
2021/10/17 08:15:08;;;;;;;48.28;40.17;;;307.30;2304.00;;;;;;5093451;28;20059;-75
2021/10/17 08:17:35;;;;;;;59.00;46.78;;;307.40;2304.00;;;;;;5094750;28;20024;-75
2021/10/17 08:20:03;;;;;;;55.20;43.42;;;307.50;2304.00;;;;;;5093334;28;20036;-75
2021/10/17 08:22:29;;;;;;;59.25;43.83;;;307.40;2304.00;;;;;;5093559;28;20035;-74
2021/10/17 08:24:55;;;;;;;53.60;43.42;;;307.40;2304.00;;;;;;5093527;28;20034;-74
2021/10/17 08:27:21;;;;;;;53.75;41.38;;;307.50;2304.00;;;;;;5093333;28;20067;-75
2021/10/17 08:29:47;;;;;;;51.78;42.25;;;307.40;2304.00;;;;;;5093515;28;20460;-73
2021/10/17 08:32:13;;;;;;;53.78;41.03;;;307.60;2304.00;;;;;;5093528;28;20115;-76
2021/10/17 08:34:39;;;;;;;57.22;44.92;;;307.70;2304.00;;;;;;5092781;28;20051;-77
2021/10/17 08:37:05;;;;;;;61.13;46.85;;;307.80;2304.00;;;;;;5093477;28;20042;-75
2021/10/17 08:39:30;;;;;;;61.47;46.92;;;307.90;2304.00;;;;;;5093191;28;20028;-77
2021/10/17 08:41:56;;;;;;;58.83;49.70;;;308.00;2304.00;;;;;;5092918;28;20028;-76
2021/10/17 08:44:22;;;;;;;72.35;56.15;;;308.00;2304.00;;;;;;5093351;28;20063;-76
2021/10/17 08:46:50;;;;;;;57.45;47.78;;;308.00;2304.00;;;;;;5093213;28;20027;-78
2021/10/17 08:49:22;;;;;;;72.53;54.70;;;308.00;2304.00;;;;;;5092798;28;20376;-75
2021/10/17 08:51:49;;;;;;;56.25;44.90;;;308.00;2304.00;;;;;;5093340;28;20448;-78
2021/10/17 08:54:15;;;;;;;62.40;47.25;;;308.00;2304.00;;;;;;5092986;28;20024;-75
2021/10/17 08:56:41;;;;;;;63.30;53.60;;;307.90;2304.00;;;;;;5094212;28;20035;-76
2021/10/17 08:59:06;;;;;;;63.47;50.40;;;307.80;2304.00;;;;;;5092872;28;20077;-77
2021/10/17 09:01:34;;;;;;;64.05;53.67;;;307.80;2304.00;;;;;;5092943;28;20024;-77
2021/10/17 09:04:01;;;;;;;58.35;48.75;;;307.90;2304.00;;;;;;5092447;28;20024;-75
2021/10/17 09:06:35;;;;;;;71.03;52.13;;;308.10;2304.00;;;;;;5092651;28;20119;-74
2021/10/17 09:09:10;;;;;;;65.75;52.60;;;332.80;2329.60;;;;;;5092435;28;20395;-76
2021/10/17 09:11:45;;;;;;;57.13;45.00;;;332.90;2329.60;;;;;;5092896;28;20051;-77
2021/10/17 09:14:12;;;;;;;47.60;38.10;;;333.00;2329.60;;;;;;5092852;28;20077;-78
2021/10/17 09:16:41;;;;;;;60.28;53.95;;;333.00;2329.60;;;;;;5092513;28;20124;-76
2021/10/17 09:19:23;;;;;;;54.55;44.65;;;333.00;2329.60;;;;;;5094285;28;20507;-76
2021/10/17 09:22:00;;;;;;;57.30;44.58;;;333.10;2329.60;;;;;;5093838;28;20381;-76
2021/10/17 09:24:27;;;;;;;57.80;44.72;;;333.20;2329.60;;;;;;5092430;28;20489;-78
2021/10/17 09:27:25;;;;;;;71.15;48.65;;;333.20;2329.60;;;;;;5093468;28;20031;-77
2021/10/17 09:29:54;;;;;;;69.15;49.38;;;333.30;2329.60;;;;;;5058868;28;20391;-75
2021/10/17 09:32:27;;;;;;;62.92;44.97;;;333.30;2329.60;;;;;;5092794;28;20039;-75
2021/10/17 09:34:52;;;;;;;;;;;333.40;2329.60;;;;;;5093377;28;20141;-77
2021/10/17 09:37:19;;;;;;;74.43;54.40;;;333.40;2329.60;;;;;;5092322;28;20351;-76
2021/10/17 09:39:47;;;;;;;78.05;58.65;;;333.40;2329.60;;;;;;5092495;28;20024;-77
2021/10/17 09:42:22;;;;;;;66.13;49.83;;;333.50;2329.60;;;;;;5092402;28;20472;-79
2021/10/17 09:44:48;;;;;;;66.10;49.88;;;333.50;2329.60;;;;;;5092226;28;20034;-75
2021/10/17 09:47:14;;;;;;;55.80;42.33;;;333.60;2329.60;;;;;;5093772;28;20458;-76
2021/10/17 09:49:40;;;;;;;56.85;41.95;;;333.60;2329.60;;;;;;5092418;28;20028;-75
2021/10/17 09:52:10;;;;;;;61.53;48.20;;;333.70;2329.60;;;;;;5092078;28;20035;-77
2021/10/17 09:54:37;;;;;;;56.25;45.38;;;333.70;2329.60;;;;;;5093610;28;20502;-76
2021/10/17 09:57:07;;;;;;;67.05;50.17;;;358.40;2329.60;;;;;;5092222;28;20091;-77
2021/10/17 09:59:34;;;;;;;59.15;46.75;;;358.50;2329.60;;;;;;5091886;28;20119;-75
2021/10/17 10:02:02;;;;;;;48.33;41.58;;;358.40;2329.60;;;;;;5093442;28;20028;-77
2021/10/17 10:04:29;;;;;;;55.55;42.33;;;358.50;2329.60;;;;;;5093290;28;20077;-75
2021/10/17 10:06:55;;;;;;;59.53;48.30;;;333.70;2329.60;;;;;;5091891;28;20051;-77
2021/10/17 10:09:24;;;;;;;55.28;44.30;;;358.50;2329.60;;;;;;5092169;28;20118;-75
2021/10/17 10:11:51;;;;;;;60.97;47.50;;;358.70;2329.60;;;;;;5092869;28;20390;-76
2021/10/17 10:14:18;;;;;;;63.65;53.28;;;358.70;2329.60;;;;;;5092138;28;20052;-76
2021/10/17 10:16:44;;;;;;;53.60;41.83;;;358.80;2329.60;;;;;;5092167;28;20035;-77
2021/10/17 10:19:12;;;;;;;54.38;43.83;;;358.80;2329.60;;;;;;5091806;28;20375;-76
2021/10/17 10:21:39;;;;;;;50.83;40.45;;;358.90;2329.60;;;;;;5091864;28;20032;-76
2021/10/17 10:24:08;;;;;;;51.67;41.88;;;358.90;2329.60;;;;;;5092141;28;20066;-75
2021/10/17 10:26:36;;;;;;;53.83;41.63;;;359.00;2329.60;;;;;;5091734;28;20055;-77
2021/10/17 10:29:02;;;;;;;56.70;43.35;;;359.00;2329.60;;;;;;5093336;28;20047;-77
2021/10/17 10:31:40;;;;;;;58.25;45.50;;;359.10;2329.60;;;;;;5091967;28;20032;-75
2021/10/17 10:34:20;;;;;;;52.80;42.10;;;359.20;2329.60;;;;;;5095665;28;20040;-78
2021/10/17 10:36:47;;;;;;;56.15;43.63;;;359.10;2329.60;;;;;;5094568;28;20028;-79
2021/10/17 10:39:16;;;;;;;54.78;42.70;;;359.30;2329.60;;;;;;5095427;28;20079;-76
2021/10/17 10:41:45;;;;;;;56.00;43.15;;;359.30;2329.60;;;;;;5095299;28;20031;-75
2021/10/17 10:44:16;;;;;;;61.42;48.97;;;384.00;2329.60;;;;;;5095343;28;20021;-75
2021/10/17 10:46:43;;;;;;;58.03;44.28;;;384.10;2329.60;;;;;;5095485;28;20028;-76
2021/10/17 10:49:09;;;;;;;54.70;42.17;;;384.30;2329.60;;;;;;5096855;28;20050;-76
2021/10/17 10:51:48;;;;;;;52.65;42.80;;;384.40;2329.60;;;;;;5096919;28;20028;-75
2021/10/17 10:54:29;;;;;;;52.30;40.55;;;384.20;2329.60;;;;;;5096022;28;20024;-75
2021/10/17 10:56:58;;;;;;;50.53;40.10;;;384.30;2329.60;;;;;;5096555;28;20032;-76
2021/10/17 10:59:29;;;;;;;62.47;49.75;;;384.40;2329.60;;;;;;5095242;28;20035;-77
2021/10/17 11:02:07;;;;;;;54.75;45.00;;;384.50;2329.60;;;;;;5093266;28;20096;-75
2021/10/17 11:04:41;;;;;;;50.97;42.47;;;384.70;2329.60;;;;;;5093837;28;20133;-78
2021/10/17 11:07:34;;;;;;;46.05;37.55;;;384.70;2329.60;;;;;;5095516;28;20031;-75
2021/10/17 11:10:38;;;;;;;52.17;38.90;;;384.70;2329.60;;;;;;5091184;28;20040;-75
2021/10/17 11:13:06;;;;;;;41.72;34.85;;;384.50;2329.60;;;;;;5036535;28;20029;-75
2021/10/17 11:15:35;;;;;;;49.15;40.72;;;384.40;2329.60;;;;;;5036318;28;20112;-76
2021/10/17 11:18:05;;;;;;;44.05;37.92;;;384.40;2329.60;;;;;;5064422;28;20028;-76
2021/10/17 11:20:42;;;;;;;41.70;35.38;;;384.40;2329.60;;;;;;5095745;28;20571;-76
2021/10/17 11:23:21;;;;;;;41.55;34.50;;;384.30;2329.60;;;;;;5094084;28;20036;-76
2021/10/17 11:26:01;;;;;;;41.03;32.03;;;384.50;2329.60;;;;;;5094819;28;20031;-77
2021/10/17 11:28:29;;;;;;;39.60;33.65;;;384.40;2329.60;;;;;;5096063;28;20027;-76
2021/10/17 11:31:16;;;;;;;38.75;31.83;;;384.60;2329.60;;;;;;5095902;28;20073;-77
2021/10/17 11:33:44;;;;;;;41.45;34.97;;;384.70;2329.60;;;;;;5095390;28;20027;-76
2021/10/17 11:36:15;;;;;;;40.88;31.17;;;384.90;2329.60;;;;;;5095587;28;20024;-76
2021/10/17 11:38:43;;;;;;;33.92;27.95;;;409.60;2355.20;;;;;;5095799;28;20498;-77
2021/10/17 11:41:12;;;;;;;33.80;29.40;;;384.80;2329.60;;;;;;5094359;28;20113;-78
2021/10/17 11:43:44;;;;;;;37.30;29.85;;;384.80;2329.60;;;;;;5095288;28;20031;-77
2021/10/17 11:46:15;;;;;;;36.10;27.20;;;384.90;2329.60;;;;;;5095443;28;20476;-77
2021/10/17 11:48:42;;;;;;;37.22;28.50;;;409.60;2355.20;;;;;;5094329;28;20487;-76
2021/10/17 11:51:11;;;;;;;38.55;29.98;;;384.90;2329.60;;;;;;5093922;28;20032;-74
2021/10/17 11:53:37;;;;;;;53.08;40.13;;;409.70;2355.20;;;;;;5094210;28;20031;-75
2021/10/17 11:56:08;;;;;;;37.92;29.55;;;409.70;2355.20;;;;;;5095742;28;20026;-76
2021/10/17 11:58:35;;;;;;;35.05;27.42;;;409.60;2355.20;;;;;;5093868;28;20371;-74